createdAt,value
2024-04-14T00:00:52.729Z,14.85
2024-04-14T00:03:20.349Z,14.79
2024-04-14T00:05:47.354Z,14.80
2024-04-14T00:08:15.860Z,14.77
2024-04-14T00:10:43.346Z,14.82
2024-04-14T00:13:10.731Z,14.81
2024-04-14T00:15:40.929Z,14.77
2024-04-14T00:18:08.485Z,14.82
2024-04-14T00:20:36.360Z,14.66
2024-04-14T00:23:04.257Z,14.51
2024-04-14T00:25:31.210Z,14.50
2024-04-14T00:27:58.567Z,14.40
2024-04-14T00:30:25.912Z,14.48
2024-04-14T00:32:53.543Z,14.62
2024-04-14T00:35:22.745Z,14.64
2024-04-14T00:37:50.048Z,14.70
2024-04-14T00:40:17.192Z,14.66
2024-04-14T00:42:45.826Z,14.66
2024-04-14T00:45:12.973Z,14.53
2024-04-14T00:47:40.429Z,14.56
2024-04-14T00:50:09.222Z,14.63
2024-04-14T00:52:36.250Z,14.72
2024-04-14T00:55:04.132Z,14.75
2024-04-14T00:57:33.686Z,14.57
2024-04-14T01:00:02.639Z,14.48
2024-04-14T01:02:30.352Z,14.58
2024-04-14T01:04:57.414Z,14.52
2024-04-14T01:07:25.430Z,14.46
2024-04-14T01:09:53.048Z,14.32
2024-04-14T01:12:20.543Z,14.13
2024-04-14T01:14:47.507Z,14.04
2024-04-14T01:17:14.955Z,13.98
2024-04-14T01:19:42.042Z,14.00
2024-04-14T01:22:08.987Z,13.99
2024-04-14T01:24:36.578Z,14.09
2024-04-14T01:27:03.575Z,14.12
2024-04-14T01:29:31.102Z,14.09
2024-04-14T01:31:58.161Z,14.07
2024-04-14T01:34:25.448Z,13.96
2024-04-14T01:36:52.605Z,13.95
2024-04-14T01:39:20.656Z,14.02
2024-04-14T01:41:47.640Z,14.15
2024-04-14T01:44:15.355Z,13.99
2024-04-14T01:46:42.341Z,13.94
2024-04-14T01:49:09.887Z,13.80
2024-04-14T01:51:37.085Z,13.76
2024-04-14T01:54:04.479Z,13.64
2024-04-14T01:56:31.458Z,13.57
2024-04-14T01:58:58.331Z,13.48
2024-04-14T02:01:25.715Z,13.43
2024-04-14T02:03:52.861Z,13.45
2024-04-14T02:06:20.329Z,13.53
2024-04-14T02:08:47.546Z,13.57
2024-04-14T02:11:14.920Z,13.59
2024-04-14T02:13:41.902Z,13.48
2024-04-14T02:16:09.840Z,13.44
2024-04-14T02:18:37.445Z,13.50
2024-04-14T02:21:05.286Z,13.42
2024-04-14T02:23:32.193Z,13.45
2024-04-14T02:26:00.679Z,13.54
2024-04-14T02:28:27.613Z,13.55
2024-04-14T02:30:55.064Z,13.50
2024-04-14T02:33:22.423Z,13.50
2024-04-14T02:36:03.022Z,13.50
2024-04-14T02:38:30.472Z,13.45
2024-04-14T02:41:02.341Z,13.37
2024-04-14T02:43:30.757Z,13.28
2024-04-14T02:45:58.231Z,13.29
2024-04-14T02:48:25.648Z,13.29
2024-04-14T02:50:53.068Z,13.24
2024-04-14T02:53:20.107Z,13.27
2024-04-14T02:55:47.515Z,13.34
2024-04-14T02:58:14.477Z,13.32
2024-04-14T03:00:41.512Z,13.38
2024-04-14T03:03:09.020Z,13.40
2024-04-14T03:05:35.967Z,13.41
2024-04-14T03:08:05.513Z,13.41
2024-04-14T03:10:33.856Z,13.35
2024-04-14T03:13:00.938Z,13.27
2024-04-14T03:15:28.007Z,13.28
2024-04-14T03:17:55.674Z,13.27
2024-04-14T03:20:22.800Z,13.25
2024-04-14T03:22:50.199Z,13.25
2024-04-14T03:25:17.432Z,13.08
2024-04-14T03:27:45.872Z,13.01
2024-04-14T03:30:12.952Z,12.92
2024-04-14T03:32:40.381Z,12.89
2024-04-14T03:35:07.383Z,12.88
2024-04-14T03:37:40.301Z,12.90
2024-04-14T03:40:09.390Z,12.86
2024-04-14T03:42:36.771Z,12.76
2024-04-14T03:45:06.859Z,12.79
2024-04-14T03:47:34.568Z,12.80
2024-04-14T03:50:03.119Z,12.80
2024-04-14T03:52:30.141Z,12.77
2024-04-14T03:54:57.691Z,12.77
2024-04-14T03:57:24.803Z,12.77
2024-04-14T03:59:52.234Z,12.76
2024-04-14T04:02:19.672Z,12.72
2024-04-14T04:04:46.722Z,12.75
2024-04-14T04:07:14.199Z,12.71
2024-04-14T04:09:41.327Z,12.75
2024-04-14T04:12:09.026Z,12.89
2024-04-14T04:14:36.016Z,12.99
2024-04-14T04:17:02.976Z,13.05
2024-04-14T04:19:33.459Z,13.17
2024-04-14T04:22:00.679Z,13.28
2024-04-14T04:24:28.836Z,13.36
2024-04-14T04:26:55.994Z,13.40
2024-04-14T04:29:26.185Z,13.43
2024-04-14T04:31:53.174Z,13.39
2024-04-14T04:34:20.399Z,13.41
2024-04-14T04:36:50.167Z,13.45
2024-04-14T04:39:18.066Z,13.48
2024-04-14T04:41:45.502Z,13.47
2024-04-14T04:44:12.579Z,13.45
2024-04-14T04:46:39.931Z,13.40
2024-04-14T04:49:06.910Z,13.43
2024-04-14T04:51:34.344Z,13.49
2024-04-14T04:54:02.512Z,13.57
2024-04-14T04:56:29.544Z,13.64
2024-04-14T04:58:56.916Z,13.64
2024-04-14T05:01:23.941Z,13.70
2024-04-14T05:03:52.356Z,13.78
2024-04-14T05:06:19.438Z,13.83
2024-04-14T05:08:48.026Z,13.91
2024-04-14T05:11:15.136Z,13.84
2024-04-14T05:13:42.096Z,13.92
2024-04-14T05:16:10.079Z,13.98
2024-04-14T05:18:37.402Z,14.05
2024-04-14T05:21:04.790Z,14.14
2024-04-14T05:23:32.160Z,14.17
2024-04-14T05:26:02.564Z,14.22
2024-04-14T05:28:29.707Z,14.29
2024-04-14T05:30:59.677Z,14.39
2024-04-14T05:33:26.716Z,14.39
2024-04-14T05:35:57.456Z,14.44
2024-04-14T05:38:24.538Z,14.51
2024-04-14T05:40:51.906Z,14.57
2024-04-14T05:43:18.939Z,14.63
2024-04-14T05:45:46.807Z,14.73
2024-04-14T05:48:15.329Z,14.75
2024-04-14T05:50:42.846Z,14.82
2024-04-14T05:53:09.850Z,14.88
2024-04-14T05:55:37.195Z,14.96
2024-04-14T05:58:04.569Z,15.01
2024-04-14T06:00:32.127Z,15.05
2024-04-14T06:03:01.122Z,15.11
2024-04-14T06:05:28.513Z,15.15
2024-04-14T06:07:58.165Z,15.21
2024-04-14T06:10:25.870Z,15.25
2024-04-14T06:12:53.556Z,15.29
2024-04-14T06:15:20.530Z,15.35
2024-04-14T06:17:48.230Z,15.44
2024-04-14T06:20:15.725Z,15.57
2024-04-14T06:22:42.655Z,15.76
2024-04-14T06:25:10.115Z,15.98
2024-04-14T06:27:37.196Z,16.17
2024-04-14T06:30:05.037Z,16.31
2024-04-14T06:32:32.435Z,16.46
2024-04-14T06:35:00.584Z,16.56
2024-04-14T06:37:27.509Z,16.62
2024-04-14T06:39:54.919Z,16.69
2024-04-14T06:42:22.040Z,16.72
2024-04-14T06:44:48.993Z,16.84
2024-04-14T06:47:16.471Z,16.99
2024-04-14T06:49:43.893Z,17.04
2024-04-14T06:52:11.349Z,17.15
2024-04-14T06:54:40.152Z,17.24
2024-04-14T06:57:07.519Z,17.30
2024-04-14T06:59:35.574Z,17.36
2024-04-14T07:02:03.371Z,17.47
2024-04-14T07:04:30.586Z,17.58
2024-04-14T07:06:58.085Z,17.71
2024-04-14T07:09:25.337Z,17.86
2024-04-14T07:11:53.595Z,17.91
2024-04-14T07:14:23.631Z,17.98
2024-04-14T07:16:50.956Z,18.06
2024-04-14T07:19:18.089Z,18.19
2024-04-14T07:21:45.807Z,18.27
2024-04-14T07:24:13.693Z,18.37
2024-04-14T07:26:44.059Z,18.44
2024-04-14T07:29:11.251Z,18.54
2024-04-14T07:31:38.578Z,18.64
2024-04-14T07:34:05.570Z,18.75
2024-04-14T07:36:33.114Z,18.81
2024-04-14T07:39:00.274Z,18.89
2024-04-14T07:41:27.667Z,18.98
2024-04-14T07:43:54.809Z,19.13
2024-04-14T07:46:23.748Z,19.30
2024-04-14T07:48:51.154Z,19.40
2024-04-14T07:51:18.574Z,19.48
2024-04-14T07:53:45.536Z,19.61
2024-04-14T07:56:12.919Z,19.75
2024-04-14T07:58:40.006Z,19.91
2024-04-14T08:01:07.576Z,20.10
2024-04-14T08:03:46.722Z,20.22
2024-04-14T08:06:18.736Z,20.28
2024-04-14T08:08:45.668Z,20.30
2024-04-14T08:11:13.280Z,20.37
2024-04-14T08:13:40.756Z,20.49
2024-04-14T08:16:08.568Z,20.56
2024-04-14T08:18:35.790Z,20.69
2024-04-14T08:21:06.369Z,20.86
2024-04-14T08:23:33.487Z,21.04
2024-04-14T08:26:01.847Z,21.20
2024-04-14T08:28:29.805Z,21.39
2024-04-14T08:30:57.030Z,21.46
2024-04-14T08:33:26.103Z,21.66
2024-04-14T08:35:53.280Z,21.82
2024-04-14T08:38:21.630Z,21.96
2024-04-14T08:40:52.804Z,22.10
2024-04-14T08:43:21.858Z,22.23
2024-04-14T08:45:51.632Z,22.37
2024-04-14T08:48:20.698Z,22.54
2024-04-14T08:50:48.567Z,22.60
2024-04-14T08:53:18.545Z,22.70
2024-04-14T08:55:47.084Z,22.76
2024-04-14T08:58:16.876Z,22.79
2024-04-14T09:00:47.784Z,23.02
2024-04-14T09:03:15.695Z,23.19
2024-04-14T09:05:45.557Z,23.26
2024-04-14T09:08:12.929Z,23.23
2024-04-14T09:10:39.842Z,23.31
2024-04-14T09:13:09.449Z,23.44
2024-04-14T09:15:43.320Z,23.48
2024-04-14T09:18:10.962Z,23.57
2024-04-14T09:20:37.981Z,23.71
2024-04-14T09:23:05.400Z,23.89
2024-04-14T09:25:34.559Z,23.86
2024-04-14T09:28:17.484Z,23.78
2024-04-14T09:30:45.032Z,23.90
2024-04-14T09:33:12.934Z,23.94
2024-04-14T09:35:40.436Z,23.94
2024-04-14T09:38:16.006Z,24.06
2024-04-14T09:40:44.427Z,23.88
2024-04-14T09:43:12.406Z,23.86
2024-04-14T09:45:41.468Z,24.07
2024-04-14T09:48:10.768Z,24.05
2024-04-14T09:50:40.445Z,23.92
2024-04-14T09:53:08.718Z,23.85
2024-04-14T09:55:39.708Z,23.98
2024-04-14T09:58:08.013Z,24.13
2024-04-14T10:00:37.961Z,24.31
2024-04-14T10:03:09.635Z,24.46
2024-04-14T10:05:40.114Z,24.63
2024-04-14T10:08:09.186Z,24.62
2024-04-14T10:10:37.150Z,24.67
2024-04-14T10:13:10.147Z,24.58
2024-04-14T10:15:45.793Z,24.66
2024-04-14T10:18:16.330Z,24.86
2024-04-14T10:20:48.733Z,24.98
2024-04-14T10:23:18.957Z,25.04
2024-04-14T10:25:48.872Z,25.12
2024-04-14T10:28:20.508Z,25.34
2024-04-14T10:30:50.544Z,25.44
2024-04-14T10:33:24.523Z,25.47
2024-04-14T10:36:05.728Z,25.76
2024-04-14T10:38:35.111Z,25.78
2024-04-14T10:41:02.639Z,25.83
2024-04-14T10:43:31.741Z,25.95
2024-04-14T10:46:02.724Z,25.98
2024-04-14T10:48:32.836Z,26.05
2024-04-14T10:51:03.152Z,26.26
2024-04-14T10:53:30.879Z,26.43
2024-04-14T10:55:58.160Z,26.46
2024-04-14T10:58:30.122Z,26.34
2024-04-14T11:00:57.842Z,26.37
2024-04-14T11:03:26.735Z,26.47
2024-04-14T11:05:55.444Z,26.82
2024-04-14T11:08:26.819Z,26.94
2024-04-14T11:10:56.377Z,26.85
2024-04-14T11:13:29.208Z,27.12
2024-04-14T11:16:00.469Z,27.21
2024-04-14T11:18:31.051Z,27.28
2024-04-14T11:21:01.690Z,27.06
2024-04-14T11:23:31.607Z,27.22
2024-04-14T11:25:58.923Z,27.44
2024-04-14T11:28:26.319Z,27.65
2024-04-14T11:30:53.770Z,27.75
2024-04-14T11:33:23.431Z,28.07
2024-04-14T11:36:00.408Z,28.31
2024-04-14T11:38:28.036Z,28.35
2024-04-14T11:40:56.876Z,28.63
2024-04-14T11:43:25.765Z,28.92
2024-04-14T11:45:53.912Z,28.67
2024-04-14T11:48:25.623Z,28.57
2024-04-14T11:50:53.331Z,28.42
2024-04-14T11:53:20.783Z,28.42
2024-04-14T11:55:47.714Z,28.72
2024-04-14T11:58:17.738Z,28.96
2024-04-14T12:00:46.419Z,28.95
2024-04-14T12:03:13.859Z,29.03
2024-04-14T12:05:40.792Z,29.18
2024-04-14T12:08:08.136Z,29.27
2024-04-14T12:10:35.248Z,29.20
2024-04-14T12:13:02.734Z,29.50
2024-04-14T12:15:29.723Z,29.67
2024-04-14T12:18:00.555Z,29.01
2024-04-14T12:20:28.108Z,28.65
2024-04-14T12:22:56.019Z,29.41
2024-04-14T12:25:23.544Z,30.00
2024-04-14T12:27:51.012Z,29.83
2024-04-14T12:30:18.542Z,29.77
2024-04-14T12:32:46.128Z,29.93
2024-04-14T12:35:13.220Z,30.25
2024-04-14T12:37:40.682Z,30.57
2024-04-14T12:40:08.383Z,30.19
2024-04-14T12:42:36.549Z,29.94
2024-04-14T12:45:03.898Z,30.12
2024-04-14T12:47:30.901Z,30.67
2024-04-14T12:49:58.434Z,31.12
2024-04-14T12:52:25.455Z,30.39
2024-04-14T12:54:52.962Z,30.59
2024-04-14T12:57:20.901Z,30.29
2024-04-14T12:59:49.112Z,30.62
2024-04-14T13:02:16.642Z,31.41
2024-04-14T13:04:46.602Z,31.73
2024-04-14T13:07:14.631Z,31.75
2024-04-14T13:09:42.060Z,31.34
2024-04-14T13:12:11.277Z,31.29
2024-04-14T13:14:39.382Z,31.01
2024-04-14T13:17:06.888Z,30.60
2024-04-14T13:19:36.414Z,30.42
2024-04-14T13:22:03.717Z,30.31
2024-04-14T13:24:31.672Z,30.37
2024-04-14T13:26:58.617Z,29.97
2024-04-14T13:29:25.988Z,29.54
2024-04-14T13:31:52.928Z,29.82
2024-04-14T13:34:20.533Z,30.27
2024-04-14T13:36:47.528Z,30.29
2024-04-14T13:39:14.854Z,29.65
2024-04-14T13:41:41.817Z,29.19
2024-04-14T13:44:09.214Z,30.07
2024-04-14T13:46:36.308Z,30.19
2024-04-14T13:49:05.074Z,30.36
2024-04-14T13:51:32.084Z,30.41
2024-04-14T13:53:59.521Z,30.73
2024-04-14T13:56:28.501Z,30.58
2024-04-14T13:58:56.478Z,30.59
2024-04-14T14:01:23.686Z,30.67
2024-04-14T14:03:51.239Z,30.58
2024-04-14T14:06:18.593Z,30.36
2024-04-14T14:08:45.923Z,30.31
2024-04-14T14:11:13.196Z,30.16
2024-04-14T14:13:40.588Z,29.46
2024-04-14T14:16:08.663Z,28.80
2024-04-14T14:18:36.297Z,28.38
2024-04-14T14:21:03.829Z,28.42
2024-04-14T14:23:31.201Z,28.43
2024-04-14T14:25:58.153Z,28.25
2024-04-14T14:28:25.700Z,28.40
2024-04-14T14:30:52.883Z,28.55
2024-04-14T14:33:39.259Z,28.60
2024-04-14T14:36:25.922Z,28.61
2024-04-14T14:38:57.197Z,28.40
2024-04-14T14:41:25.189Z,28.16
2024-04-14T14:43:54.257Z,28.28
2024-04-14T14:46:22.362Z,28.26
2024-04-14T14:48:50.363Z,28.26
2024-04-14T14:51:17.844Z,28.28
2024-04-14T14:53:44.909Z,28.31
2024-04-14T14:56:12.571Z,28.38
2024-04-14T14:58:39.986Z,28.18
2024-04-14T15:01:07.639Z,28.02
2024-04-14T15:03:35.461Z,27.91
2024-04-14T15:06:03.031Z,27.64
2024-04-14T15:08:30.683Z,27.44
2024-04-14T15:10:57.774Z,27.24
2024-04-14T15:13:25.347Z,26.75
2024-04-14T15:15:57.252Z,26.52
2024-04-14T15:18:25.429Z,26.39
2024-04-14T15:20:53.379Z,26.33
2024-04-14T15:23:21.172Z,26.23
2024-04-14T15:25:48.152Z,26.36
2024-04-14T15:28:22.844Z,26.19
2024-04-14T15:30:56.292Z,26.06
2024-04-14T15:33:23.800Z,25.90
2024-04-14T15:35:50.968Z,25.80
2024-04-14T15:38:18.481Z,25.70
2024-04-14T15:40:48.127Z,25.62
2024-04-14T15:43:15.581Z,25.68
2024-04-14T15:45:42.614Z,25.64
2024-04-14T15:48:10.133Z,25.53
2024-04-14T15:50:37.067Z,25.49
2024-04-14T15:53:04.706Z,25.45
2024-04-14T15:55:31.755Z,25.43
2024-04-14T15:57:59.277Z,25.43
2024-04-14T16:00:26.211Z,25.36
2024-04-14T16:02:54.160Z,25.36
2024-04-14T16:05:21.183Z,25.32
2024-04-14T16:07:48.952Z,25.19
2024-04-14T16:10:16.207Z,25.09
2024-04-14T16:12:43.898Z,25.06
2024-04-14T16:15:11.014Z,24.95
2024-04-14T16:17:38.433Z,24.86
2024-04-14T16:20:06.039Z,24.80
2024-04-14T16:22:33.487Z,24.82
2024-04-14T16:25:00.495Z,24.65
2024-04-14T16:27:27.844Z,24.66
2024-04-14T16:29:54.953Z,24.66
2024-04-14T16:32:24.968Z,24.68
2024-04-14T16:34:52.050Z,24.57
2024-04-14T16:37:19.980Z,24.41
2024-04-14T16:39:47.274Z,24.28
2024-04-14T16:42:14.798Z,24.27
2024-04-14T16:44:42.061Z,24.23
2024-04-14T16:47:09.552Z,24.15
2024-04-14T16:49:36.513Z,24.15
2024-04-14T16:52:04.493Z,24.16
2024-04-14T16:54:34.013Z,24.10
2024-04-14T16:57:01.835Z,24.04
2024-04-14T16:59:29.200Z,24.01
2024-04-14T17:01:56.691Z,23.98
2024-04-14T17:04:23.832Z,23.80
2024-04-14T17:06:51.357Z,23.73
2024-04-14T17:09:18.304Z,23.70
2024-04-14T17:11:46.911Z,23.66
2024-04-14T17:14:14.016Z,23.65
2024-04-14T17:16:41.774Z,23.54
2024-04-14T17:19:08.923Z,23.40
2024-04-14T17:21:36.313Z,23.30
2024-04-14T17:24:03.425Z,23.20
2024-04-14T17:26:30.797Z,23.22
2024-04-14T17:28:58.032Z,23.25
2024-04-14T17:31:25.481Z,23.22
2024-04-14T17:33:52.872Z,23.17
2024-04-14T17:36:20.245Z,23.05
2024-04-14T17:38:47.695Z,23.00
2024-04-14T17:41:14.619Z,22.90
2024-04-14T17:43:42.025Z,22.81
2024-04-14T17:46:09.538Z,22.71
2024-04-14T17:48:36.646Z,22.69
2024-04-14T17:51:07.892Z,22.70
2024-04-14T17:53:37.906Z,22.70
2024-04-14T17:56:05.560Z,22.60
2024-04-14T17:58:33.213Z,22.45
2024-04-14T18:01:01.038Z,22.46
2024-04-14T18:03:29.141Z,22.42
2024-04-14T18:05:57.957Z,22.36
2024-04-14T18:08:25.580Z,22.29
2024-04-14T18:10:52.530Z,22.26
2024-04-14T18:13:19.937Z,22.24
2024-04-14T18:15:47.162Z,22.07
2024-04-14T18:18:14.579Z,21.88
2024-04-14T18:20:43.413Z,21.71
2024-04-14T18:23:12.775Z,21.65
2024-04-14T18:25:43.374Z,21.52
2024-04-14T18:28:10.771Z,21.37
2024-04-14T18:30:40.328Z,21.28
2024-04-14T18:33:07.994Z,21.21
2024-04-14T18:35:35.361Z,21.11
2024-04-14T18:38:02.786Z,20.98
2024-04-14T18:40:30.277Z,20.93
2024-04-14T18:42:57.251Z,20.85
2024-04-14T18:45:24.567Z,20.77
2024-04-14T18:47:51.680Z,20.58
2024-04-14T18:50:19.181Z,20.53
2024-04-14T18:52:46.822Z,20.43
2024-04-14T18:55:14.015Z,20.33
2024-04-14T18:57:41.537Z,20.20
2024-04-14T19:00:08.929Z,20.21
2024-04-14T19:02:36.643Z,20.11
2024-04-14T19:05:04.136Z,20.07
2024-04-14T19:07:32.094Z,20.10
2024-04-14T19:10:00.755Z,20.15
2024-04-14T19:12:31.870Z,20.18
2024-04-14T19:14:59.250Z,20.06
2024-04-14T19:17:28.339Z,19.81
2024-04-14T19:19:55.847Z,19.71
2024-04-14T19:22:23.341Z,19.68
2024-04-14T19:24:51.539Z,19.58
2024-04-14T19:27:18.939Z,19.69
2024-04-14T19:29:46.256Z,19.73
2024-04-14T19:32:13.169Z,19.64
2024-04-14T19:34:40.666Z,19.55
2024-04-14T19:37:07.729Z,19.44
2024-04-14T19:39:39.952Z,19.28
2024-04-14T19:42:07.139Z,19.28
2024-04-14T19:44:34.503Z,19.22
2024-04-14T19:47:02.167Z,19.22
2024-04-14T19:49:29.579Z,19.20
2024-04-14T19:51:56.644Z,19.24
2024-04-14T19:54:24.113Z,19.10
2024-04-14T19:56:51.167Z,19.00
2024-04-14T19:59:18.775Z,18.88
2024-04-14T20:01:46.427Z,18.90
2024-04-14T20:04:13.625Z,18.88
2024-04-14T20:06:41.181Z,18.82
2024-04-14T20:09:11.383Z,18.78
2024-04-14T20:11:39.020Z,18.79
2024-04-14T20:14:06.634Z,18.80
2024-04-14T20:16:35.494Z,18.76
2024-04-14T20:19:03.029Z,18.57
2024-04-14T20:21:32.971Z,18.49
2024-04-14T20:24:00.591Z,18.25
2024-04-14T20:26:28.466Z,18.07
2024-04-14T20:28:55.401Z,18.03
2024-04-14T20:31:26.063Z,18.05
2024-04-14T20:33:53.559Z,18.15
2024-04-14T20:36:20.576Z,18.23
2024-04-14T20:38:49.741Z,18.32
2024-04-14T20:41:16.812Z,18.31
2024-04-14T20:43:45.456Z,18.25
2024-04-14T20:46:12.747Z,18.09
2024-04-14T20:48:40.397Z,18.09
2024-04-14T20:51:07.541Z,17.93
2024-04-14T20:53:36.574Z,17.76
2024-04-14T20:56:03.656Z,17.71
2024-04-14T20:58:31.254Z,17.80
2024-04-14T21:01:03.530Z,17.98
2024-04-14T21:03:31.033Z,18.03
2024-04-14T21:05:58.206Z,17.93
2024-04-14T21:08:25.558Z,17.88
2024-04-14T21:11:06.905Z,17.87
2024-04-14T21:13:34.449Z,17.65
2024-04-14T21:16:11.063Z,17.57
2024-04-14T21:18:39.213Z,17.51
2024-04-14T21:21:06.239Z,17.50
2024-04-14T21:23:33.674Z,17.48
2024-04-14T21:26:04.736Z,17.56
2024-04-14T21:28:33.950Z,17.41
2024-04-14T21:31:01.190Z,17.34
2024-04-14T21:33:29.414Z,17.30
2024-04-14T21:35:57.568Z,17.37
2024-04-14T21:38:25.751Z,17.56
2024-04-14T21:40:56.514Z,17.57
2024-04-14T21:43:23.603Z,17.54
2024-04-14T21:45:59.040Z,17.48
2024-04-14T21:48:28.420Z,17.49
2024-04-14T21:51:06.570Z,17.40
2024-04-14T21:53:36.158Z,17.20
2024-04-14T21:56:04.299Z,17.18
2024-04-14T21:58:35.135Z,17.25
2024-04-14T22:01:12.578Z,17.29
2024-04-14T22:03:41.019Z,17.32
2024-04-14T22:06:08.109Z,17.37
2024-04-14T22:08:37.963Z,17.32
2024-04-14T22:11:06.443Z,17.33
2024-04-14T22:13:36.560Z,17.28
2024-04-14T22:16:03.800Z,17.23
2024-04-14T22:18:31.999Z,17.18
2024-04-14T22:21:00.786Z,17.10
2024-04-14T22:23:28.244Z,17.16
2024-04-14T22:25:55.802Z,17.22
2024-04-14T22:28:23.212Z,17.16
2024-04-14T22:30:51.477Z,17.10
2024-04-14T22:33:22.810Z,16.98
2024-04-14T22:35:49.953Z,17.00
2024-04-14T22:38:16.961Z,17.07
2024-04-14T22:40:44.276Z,17.14
2024-04-14T22:43:11.217Z,17.02
2024-04-14T22:45:38.719Z,16.99
2024-04-14T22:48:06.067Z,16.88
2024-04-14T22:50:33.478Z,16.75
2024-04-14T22:53:02.384Z,16.90
2024-04-14T22:55:29.456Z,16.99
2024-04-14T22:57:56.840Z,17.01
2024-04-14T23:00:24.854Z,17.03
2024-04-14T23:02:52.137Z,17.08
2024-04-14T23:05:20.514Z,17.22
2024-04-14T23:07:47.417Z,17.31
2024-04-14T23:10:16.002Z,17.41
2024-04-14T23:12:43.596Z,17.56
2024-04-14T23:15:10.585Z,17.64
2024-04-14T23:17:38.294Z,17.73
2024-04-14T23:20:05.639Z,17.90
2024-04-14T23:22:33.097Z,18.01
2024-04-14T23:25:00.712Z,18.09
2024-04-14T23:27:28.139Z,18.17
2024-04-14T23:29:55.096Z,18.24
2024-04-14T23:32:22.450Z,18.27
2024-04-14T23:34:49.378Z,18.24
2024-04-14T23:37:16.919Z,18.23
2024-04-14T23:39:43.894Z,18.24
2024-04-14T23:42:11.955Z,18.21
2024-04-14T23:44:39.469Z,18.14
2024-04-14T23:47:08.205Z,18.11
2024-04-14T23:49:35.761Z,18.16
2024-04-14T23:52:02.787Z,18.14
2024-04-14T23:54:30.090Z,18.20
2024-04-14T23:56:57.093Z,18.19
2024-04-14T23:59:24.764Z,18.20
